Time;durP1;ratioP1;P1;durP2;ratioP2;P2;SDS_P1;SDS_P2;PMS_P1;PMS_P2;Temp;Humidity;BMP_temperature;BMP_pressure;BME280_temperature;BME280_humidity;BME280_pressure;Samples;Min_cycle;Max_cycle;Signal;HPM_P1;HPM_P2
2021/06/30 00:01:56;;;;;;;1.40;1.30;;;;;;;;;;5014500;28;20382;-75
2021/06/30 00:04:22;;;;;;;1.25;1.23;;;;;;;;;;5014007;28;20037;-74
2021/06/30 00:06:48;;;;;;;2.35;1.30;;;;;;;;;;5013927;28;20025;-74
2021/06/30 00:09:15;;;;;;;1.33;1.23;;;;;;;;;;4996233;28;20123;-74
2021/06/30 00:11:42;;;;;;;1.65;1.42;;;;;;;;;;5013951;28;20084;-74
2021/06/30 00:14:08;;;;;;;1.20;1.20;;;;;;;;;;5014052;28;20030;-73
2021/06/30 00:16:34;;;;;;;1.20;1.20;;;;;;;;;;5013563;28;20081;-74
2021/06/30 00:19:00;;;;;;;1.00;1.00;;;;;;;;;;5013853;28;20098;-74
2021/06/30 00:21:27;;;;;;;1.00;1.00;;;;;;;;;;4996781;28;20040;-74
2021/06/30 00:23:53;;;;;;;1.50;1.40;;;;;;;;;;5014698;28;20061;-75
2021/06/30 00:26:19;;;;;;;1.30;1.20;;;;;;;;;;5021957;28;20088;-75
2021/06/30 00:28:46;;;;;;;1.55;1.45;;;;;;;;;;5013292;28;20037;-74
2021/06/30 00:31:12;;;;;;;1.25;1.15;;;;;;;;;;5013618;28;20026;-75
2021/06/30 00:33:38;;;;;;;1.80;1.40;;;;;;;;;;5013616;28;20026;-74
2021/06/30 00:36:04;;;;;;;1.45;1.20;;;;;;;;;;5013778;28;20029;-74
2021/06/30 00:38:30;;;;;;;1.27;1.27;;;;;;;;;;5013334;28;20030;-74
2021/06/30 00:40:56;;;;;;;1.38;1.27;;;;;;;;;;5013715;28;20030;-74
2021/06/30 00:43:22;;;;;;;1.10;1.10;;;;;;;;;;5013615;28;20475;-74
2021/06/30 00:45:49;;;;;;;1.63;1.52;;;;;;;;;;5013363;28;20029;-74
2021/06/30 00:48:15;;;;;;;1.38;1.27;;;;;;;;;;5013234;28;20538;-73
2021/06/30 00:50:41;;;;;;;1.15;1.15;;;;;;;;;;5013782;28;20022;-74
2021/06/30 00:53:07;;;;;;;1.30;1.00;;;;;;;;;;5015000;28;20034;-74
2021/06/30 00:55:33;;;;;;;1.55;1.10;;;;;;;;;;5023073;28;20059;-74
2021/06/30 00:57:59;;;;;;;1.10;1.10;;;;;;;;;;5013511;28;20455;-74
2021/06/30 01:00:26;;;;;;;1.55;1.45;;;;;;;;;;5012463;28;20405;-74
2021/06/30 01:02:53;;;;;;;0.90;0.90;;;;;;;;;;5013318;28;20050;-73
2021/06/30 01:05:19;;;;;;;1.42;1.33;;;;;;;;;;5013364;28;20057;-74
2021/06/30 01:07:45;;;;;;;0.98;0.98;;;;;;;;;;5012930;28;20026;-73
2021/06/30 01:10:11;;;;;;;1.42;1.33;;;;;;;;;;5012819;28;20534;-73
2021/06/30 01:12:37;;;;;;;1.10;1.10;;;;;;;;;;5013160;28;20125;-74
2021/06/30 01:15:05;;;;;;;0.88;0.88;;;;;;;;;;5013013;28;20034;-75
2021/06/30 01:17:31;;;;;;;1.00;1.00;;;;;;;;;;5013504;28;20033;-74
2021/06/30 01:19:57;;;;;;;1.38;1.25;;;;;;;;;;5012942;28;20110;-73
2021/06/30 01:22:24;;;;;;;1.60;0.80;;;;;;;;;;4995203;28;20434;-74
2021/06/30 01:24:51;;;;;;;1.33;1.23;;;;;;;;;;5021210;28;20014;-75
2021/06/30 01:27:18;;;;;;;2.03;1.08;;;;;;;;;;5029229;28;20034;-74
2021/06/30 01:29:44;;;;;;;1.20;1.10;;;;;;;;;;5012002;28;20026;-75
2021/06/30 01:32:10;;;;;;;0.88;0.88;;;;;;;;;;5012761;28;20036;-74
2021/06/30 01:34:36;;;;;;;1.08;1.08;;;;;;;;;;5012395;28;20087;-75
2021/06/30 01:37:02;;;;;;;1.35;0.80;;;;;;;;;;5012717;28;20105;-74
2021/06/30 01:39:29;;;;;;;1.38;1.10;;;;;;;;;;5011324;28;20123;-75
2021/06/30 01:41:55;;;;;;;1.13;1.02;;;;;;;;;;5012471;28;20056;-74
2021/06/30 01:44:21;;;;;;;2.30;0.90;;;;;;;;;;5012750;28;20360;-74
2021/06/30 01:46:47;;;;;;;3.30;1.48;;;;;;;;;;5012575;28;20631;-74
2021/06/30 01:49:13;;;;;;;1.05;1.00;;;;;;;;;;5012168;28;20051;-74
2021/06/30 01:51:39;;;;;;;2.13;1.13;;;;;;;;;;5012488;28;20029;-74
2021/06/30 01:54:06;;;;;;;1.00;1.00;;;;;;;;;;5000921;28;20041;-72
2021/06/30 01:56:33;;;;;;;1.27;1.10;;;;;;;;;;5019162;28;20022;-73
2021/06/30 01:58:59;;;;;;;2.33;1.13;;;;;;;;;;5012293;28;20137;-73
2021/06/30 02:01:25;;;;;;;0.95;0.95;;;;;;;;;;5012483;28;20022;-73
2021/06/30 02:03:51;;;;;;;1.05;0.90;;;;;;;;;;5011613;28;20106;-72
2021/06/30 02:06:17;;;;;;;0.95;0.95;;;;;;;;;;5012464;28;20105;-72
2021/06/30 02:08:43;;;;;;;1.30;1.20;;;;;;;;;;5011740;28;20037;-73
2021/06/30 02:11:09;;;;;;;1.27;1.17;;;;;;;;;;5012403;28;20053;-72
2021/06/30 02:13:36;;;;;;;1.17;1.17;;;;;;;;;;5012089;28;20025;-72
2021/06/30 02:16:02;;;;;;;2.35;1.00;;;;;;;;;;5012718;28;20033;-72
2021/06/30 02:18:29;;;;;;;2.28;1.08;;;;;;;;;;5012177;28;20514;-72
2021/06/30 02:20:55;;;;;;;1.13;1.10;;;;;;;;;;4993325;28;20361;-72
2021/06/30 02:23:21;;;;;;;2.10;0.93;;;;;;;;;;5001392;28;20017;-72
2021/06/30 02:25:47;;;;;;;2.13;1.05;;;;;;;;;;5023672;28;20378;-72
2021/06/30 02:28:13;;;;;;;1.58;0.90;;;;;;;;;;5015004;28;20026;-73
2021/06/30 02:30:39;;;;;;;1.15;1.10;;;;;;;;;;5015676;28;20022;-73
2021/06/30 02:33:05;;;;;;;1.25;1.10;;;;;;;;;;5016092;28;20101;-73
2021/06/30 02:35:32;;;;;;;1.60;0.95;;;;;;;;;;5016295;28;20482;-73
2021/06/30 02:37:58;;;;;;;1.17;1.17;;;;;;;;;;5016424;28;20117;-72
2021/06/30 02:40:25;;;;;;;1.77;1.10;;;;;;;;;;4997916;28;20403;-73
2021/06/30 02:42:51;;;;;;;2.75;1.00;;;;;;;;;;5016181;28;20045;-72
2021/06/30 02:45:18;;;;;;;1.95;1.00;;;;;;;;;;5015610;28;20478;-73
2021/06/30 02:47:45;;;;;;;1.15;1.05;;;;;;;;;;5016147;28;20054;-73
2021/06/30 02:50:12;;;;;;;0.93;0.90;;;;;;;;;;4997935;28;20030;-73
2021/06/30 02:52:39;;;;;;;0.85;0.75;;;;;;;;;;5015838;28;20088;-73
2021/06/30 02:55:06;;;;;;;1.48;0.90;;;;;;;;;;5024172;28;20050;-73
2021/06/30 02:57:32;;;;;;;2.05;1.00;;;;;;;;;;5015927;28;20033;-73
2021/06/30 02:59:58;;;;;;;0.93;0.93;;;;;;;;;;5015169;28;20038;-73
2021/06/30 03:02:24;;;;;;;3.70;0.82;;;;;;;;;;5016237;28;20028;-74
2021/06/30 03:04:50;;;;;;;2.67;0.70;;;;;;;;;;5015874;28;20026;-74
2021/06/30 03:07:16;;;;;;;0.50;0.50;;;;;;;;;;5015872;28;20033;-73
2021/06/30 03:09:42;;;;;;;0.40;0.35;;;;;;;;;;5015567;28;20114;-73
2021/06/30 03:12:08;;;;;;;0.65;0.40;;;;;;;;;;5015982;28;20026;-74
2021/06/30 03:14:34;;;;;;;0.80;0.57;;;;;;;;;;5014680;28;20108;-73
2021/06/30 03:17:00;;;;;;;0.30;0.28;;;;;;;;;;5013724;28;20026;-74
2021/06/30 03:19:26;;;;;;;0.55;0.30;;;;;;;;;;5014238;28;20502;-73
2021/06/30 03:21:52;;;;;;;1.52;0.47;;;;;;;;;;5014625;28;20030;-73
2021/06/30 03:24:18;;;;;;;0.30;0.30;;;;;;;;;;5004624;28;20021;-74
2021/06/30 03:26:44;;;;;;;0.30;0.20;;;;;;;;;;5019656;28;20076;-73
2021/06/30 03:29:10;;;;;;;0.38;0.38;;;;;;;;;;5013409;28;20034;-74
2021/06/30 03:31:36;;;;;;;0.30;0.30;;;;;;;;;;5014285;28;20037;-73
2021/06/30 03:34:02;;;;;;;0.95;0.30;;;;;;;;;;5014537;28;20026;-73
2021/06/30 03:36:29;;;;;;;0.73;0.73;;;;;;;;;;5014284;28;20105;-73
2021/06/30 03:38:55;;;;;;;0.80;0.22;;;;;;;;;;5013022;28;20037;-73
2021/06/30 03:41:21;;;;;;;0.85;0.30;;;;;;;;;;5013811;28;20029;-73
2021/06/30 03:43:47;;;;;;;0.40;0.20;;;;;;;;;;5014373;28;20028;-74
2021/06/30 03:46:13;;;;;;;0.22;0.22;;;;;;;;;;5014727;28;20137;-74
2021/06/30 03:48:39;;;;;;;1.27;0.20;;;;;;;;;;5014494;28;20511;-73
2021/06/30 03:51:05;;;;;;;0.45;0.10;;;;;;;;;;5014611;28;20399;-73
2021/06/30 03:53:31;;;;;;;0.17;0.17;;;;;;;;;;5016288;28;20040;-74
2021/06/30 03:55:57;;;;;;;0.10;0.10;;;;;;;;;;5030287;28;20040;-73
2021/06/30 03:58:23;;;;;;;0.05;0.00;;;;;;;;;;5034012;28;20033;-74
2021/06/30 04:00:49;;;;;;;0.10;0.10;;;;;;;;;;5014249;28;20030;-73
2021/06/30 04:03:18;;;;;;;0.10;0.10;;;;;;;;;;4996906;28;20065;-74
2021/06/30 04:05:45;;;;;;;0.13;0.10;;;;;;;;;;5014355;28;20026;-73
2021/06/30 04:08:12;;;;;;;0.10;0.10;;;;;;;;;;5014426;28;20105;-75
2021/06/30 04:10:38;;;;;;;0.10;0.10;;;;;;;;;;5016364;28;20025;-74
2021/06/30 04:13:04;;;;;;;2.17;0.20;;;;;;;;;;5021832;28;20049;-74
2021/06/30 04:15:31;;;;;;;0.65;0.10;;;;;;;;;;5031222;28;20029;-74
2021/06/30 04:17:59;;;;;;;1.95;0.68;;;;;;;;;;5034836;28;20037;-75
2021/06/30 04:20:25;;;;;;;0.35;0.20;;;;;;;;;;5018180;28;20102;-74
2021/06/30 04:22:51;;;;;;;1.52;0.20;;;;;;;;;;5015243;28;20030;-75
2021/06/30 04:25:17;;;;;;;0.47;0.20;;;;;;;;;;5027855;28;20029;-74
2021/06/30 04:27:43;;;;;;;0.85;0.00;;;;;;;;;;5015722;28;20072;-74
2021/06/30 04:30:10;;;;;;;0.63;0.00;;;;;;;;;;5015311;28;20133;-74
2021/06/30 04:32:37;;;;;;;0.20;0.13;;;;;;;;;;5016234;28;20052;-74
2021/06/30 04:35:04;;;;;;;0.98;0.20;;;;;;;;;;5016370;28;20037;-74
2021/06/30 04:37:30;;;;;;;0.10;0.10;;;;;;;;;;5016890;28;20037;-74
2021/06/30 04:39:56;;;;;;;0.10;0.10;;;;;;;;;;5015259;28;20379;-75
2021/06/30 04:42:22;;;;;;;0.10;0.10;;;;;;;;;;4996674;28;20022;-75
2021/06/30 04:44:48;;;;;;;0.30;0.28;;;;;;;;;;4996383;28;20455;-73
2021/06/30 04:47:14;;;;;;;0.47;0.10;;;;;;;;;;4996661;28;20148;-75
2021/06/30 04:49:40;;;;;;;0.28;0.20;;;;;;;;;;5013161;28;20447;-74
2021/06/30 04:52:06;;;;;;;2.28;0.10;;;;;;;;;;5013433;28;20037;-74
2021/06/30 04:54:32;;;;;;;1.10;0.10;;;;;;;;;;5005686;28;20048;-76
2021/06/30 04:56:58;;;;;;;0.30;0.17;;;;;;;;;;5022437;28;20116;-77
2021/06/30 04:59:24;;;;;;;2.40;0.22;;;;;;;;;;5014899;28;20080;-74
2021/06/30 05:01:51;;;;;;;0.57;0.20;;;;;;;;;;5013664;28;20118;-75
2021/06/30 05:04:18;;;;;;;0.20;0.20;;;;;;;;;;5012999;28;20133;-75
2021/06/30 05:06:44;;;;;;;0.25;0.17;;;;;;;;;;5013657;28;20057;-74
2021/06/30 05:09:10;;;;;;;2.00;0.20;;;;;;;;;;5013440;28;20116;-74
2021/06/30 05:11:36;;;;;;;0.10;0.00;;;;;;;;;;5013601;28;20029;-73
2021/06/30 05:14:03;;;;;;;0.60;0.20;;;;;;;;;;5013282;28;20368;-74
2021/06/30 05:16:29;;;;;;;0.25;0.20;;;;;;;;;;4997076;28;20037;-74
2021/06/30 05:18:55;;;;;;;0.20;0.20;;;;;;;;;;5013946;28;20029;-74
2021/06/30 05:21:21;;;;;;;0.98;0.20;;;;;;;;;;5013473;28;20489;-74
2021/06/30 05:23:47;;;;;;;0.10;0.10;;;;;;;;;;5015749;28;20261;-74
2021/06/30 05:26:14;;;;;;;2.05;0.10;;;;;;;;;;5021828;28;20048;-74
2021/06/30 05:28:40;;;;;;;0.17;0.17;;;;;;;;;;5012550;28;20100;-74
2021/06/30 05:31:06;;;;;;;1.65;0.10;;;;;;;;;;5012728;28;20084;-75
2021/06/30 05:33:32;;;;;;;0.10;0.10;;;;;;;;;;5012315;28;20057;-74
2021/06/30 05:35:58;;;;;;;0.82;0.30;;;;;;;;;;5012475;28;20030;-76
2021/06/30 05:38:24;;;;;;;0.15;0.10;;;;;;;;;;5011981;28;20022;-76
2021/06/30 05:40:50;;;;;;;1.27;0.22;;;;;;;;;;5012949;28;20029;-75
2021/06/30 05:43:16;;;;;;;0.43;0.10;;;;;;;;;;5012333;28;20093;-76
2021/06/30 05:45:43;;;;;;;0.63;0.20;;;;;;;;;;5012418;28;20022;-76
2021/06/30 05:48:09;;;;;;;2.45;0.30;;;;;;;;;;5012921;28;20041;-76
2021/06/30 05:50:35;;;;;;;0.15;0.15;;;;;;;;;;5012997;28;20198;-76
2021/06/30 05:53:01;;;;;;;1.73;0.20;;;;;;;;;;5009913;28;20052;-76
2021/06/30 05:55:28;;;;;;;0.20;0.20;;;;;;;;;;5014854;28;20029;-75
2021/06/30 05:57:54;;;;;;;0.20;0.10;;;;;;;;;;5014296;28;20026;-75
2021/06/30 06:00:21;;;;;;;0.43;0.10;;;;;;;;;;5015089;28;20161;-76
2021/06/30 06:02:47;;;;;;;0.20;0.20;;;;;;;;;;5004873;28;20030;-76
2021/06/30 06:05:13;;;;;;;0.45;0.10;;;;;;;;;;5021867;28;20029;-76
2021/06/30 06:07:39;;;;;;;0.88;0.10;;;;;;;;;;5022351;28;20084;-77
2021/06/30 06:10:06;;;;;;;0.85;0.10;;;;;;;;;;5021071;28;20048;-75
2021/06/30 06:12:32;;;;;;;0.73;0.32;;;;;;;;;;5000916;28;20132;-75
2021/06/30 06:14:59;;;;;;;0.47;0.20;;;;;;;;;;5001352;28;20483;-75
2021/06/30 06:17:25;;;;;;;0.15;0.15;;;;;;;;;;5019543;28;20117;-75
2021/06/30 06:19:51;;;;;;;0.73;0.20;;;;;;;;;;5019093;28;20107;-74
2021/06/30 06:22:17;;;;;;;0.20;0.15;;;;;;;;;;5018880;28;20029;-75
2021/06/30 06:24:43;;;;;;;1.75;0.10;;;;;;;;;;5026995;28;20097;-75
2021/06/30 06:27:09;;;;;;;1.20;0.10;;;;;;;;;;5037577;28;20033;-75
2021/06/30 06:29:35;;;;;;;0.10;0.10;;;;;;;;;;5038917;28;20044;-75
2021/06/30 06:32:01;;;;;;;2.00;0.30;;;;;;;;;;5034245;28;20029;-76
2021/06/30 06:34:28;;;;;;;0.35;0.35;;;;;;;;;;5019240;28;20026;-75
2021/06/30 06:36:54;;;;;;;0.38;0.38;;;;;;;;;;5018907;28;20203;-75
2021/06/30 06:39:20;;;;;;;3.45;0.32;;;;;;;;;;5001244;28;20196;-75
2021/06/30 06:41:47;;;;;;;0.73;0.30;;;;;;;;;;5001433;28;20501;-75
2021/06/30 06:44:13;;;;;;;1.38;0.50;;;;;;;;;;5018345;28;20044;-75
2021/06/30 06:46:40;;;;;;;1.48;0.40;;;;;;;;;;5018307;28;20116;-75
2021/06/30 06:49:06;;;;;;;0.20;0.20;;;;;;;;;;5018752;28;20022;-75
2021/06/30 06:51:33;;;;;;;0.32;0.32;;;;;;;;;;5001002;28;20030;-75
2021/06/30 06:53:59;;;;;;;0.38;0.38;;;;;;;;;;5026460;28;20087;-74
2021/06/30 06:56:26;;;;;;;0.10;0.10;;;;;;;;;;5031363;28;20079;-75
2021/06/30 06:58:52;;;;;;;0.55;0.30;;;;;;;;;;5038271;28;20057;-75
2021/06/30 07:01:19;;;;;;;0.88;0.45;;;;;;;;;;5038325;28;20431;-75
2021/06/30 07:03:45;;;;;;;0.80;0.63;;;;;;;;;;5027839;28;20033;-74
2021/06/30 07:06:11;;;;;;;1.58;0.30;;;;;;;;;;5019274;28;20033;-74
2021/06/30 07:08:37;;;;;;;0.70;0.20;;;;;;;;;;5018565;28;20454;-74
2021/06/30 07:11:03;;;;;;;0.20;0.20;;;;;;;;;;5019027;28;20058;-74
2021/06/30 07:13:29;;;;;;;0.30;0.30;;;;;;;;;;5015880;28;20497;-75
2021/06/30 07:15:55;;;;;;;0.55;0.30;;;;;;;;;;5015551;28;20030;-75
2021/06/30 07:18:21;;;;;;;0.20;0.20;;;;;;;;;;5015243;28;20044;-75
2021/06/30 07:20:47;;;;;;;0.10;0.10;;;;;;;;;;5015605;28;20022;-75
2021/06/30 07:23:14;;;;;;;0.68;0.25;;;;;;;;;;5017848;28;20022;-75
2021/06/30 07:25:40;;;;;;;0.22;0.20;;;;;;;;;;5023266;28;20096;-75
2021/06/30 07:28:07;;;;;;;0.77;0.55;;;;;;;;;;5015597;28;20025;-75
2021/06/30 07:30:33;;;;;;;0.10;0.10;;;;;;;;;;5015277;28;20033;-75
2021/06/30 07:33:00;;;;;;;0.65;0.17;;;;;;;;;;5015089;28;20379;-75
2021/06/30 07:35:26;;;;;;;0.10;0.10;;;;;;;;;;5015152;28;20426;-75
2021/06/30 07:37:53;;;;;;;1.75;0.20;;;;;;;;;;5014982;28;20101;-75
2021/06/30 07:40:19;;;;;;;0.20;0.20;;;;;;;;;;5014933;28;20134;-75
2021/06/30 07:42:45;;;;;;;0.32;0.20;;;;;;;;;;5015563;28;20017;-75
2021/06/30 07:45:12;;;;;;;0.90;0.20;;;;;;;;;;5014734;28;20049;-75
2021/06/30 07:47:38;;;;;;;0.32;0.20;;;;;;;;;;5015121;28;20022;-75
2021/06/30 07:50:05;;;;;;;6.00;0.38;;;;;;;;;;4997349;28;20080;-75
2021/06/30 07:52:32;;;;;;;0.15;0.10;;;;;;;;;;5032604;22;20050;-77
2021/06/30 07:54:58;;;;;;;0.22;0.22;;;;;;;;;;5017925;28;20092;-77
2021/06/30 07:57:24;;;;;;;1.40;0.20;;;;;;;;;;5037254;28;20069;-78
2021/06/30 07:59:50;;;;;;;0.25;0.20;;;;;;;;;;5037969;28;20026;-77
2021/06/30 08:02:16;;;;;;;0.22;0.20;;;;;;;;;;5039671;28;20115;-77
2021/06/30 08:04:42;;;;;;;0.80;0.20;;;;;;;;;;5045150;28;20024;-77
2021/06/30 08:07:09;;;;;;;0.43;0.20;;;;;;;;;;5025875;28;20162;-77
2021/06/30 08:09:35;;;;;;;0.90;0.40;;;;;;;;;;5012374;28;20030;-77
2021/06/30 08:12:03;;;;;;;0.32;0.20;;;;;;;;;;5030875;28;20041;-78
2021/06/30 08:14:29;;;;;;;0.80;0.20;;;;;;;;;;5031448;28;20090;-77
2021/06/30 08:16:55;;;;;;;0.60;0.35;;;;;;;;;;5032870;28;20076;-78
2021/06/30 08:19:22;;;;;;;0.77;0.30;;;;;;;;;;5029541;28;20038;-77
2021/06/30 08:21:49;;;;;;;0.10;0.10;;;;;;;;;;5023472;28;20070;-78
2021/06/30 08:24:15;;;;;;;1.30;0.30;;;;;;;;;;5017736;28;20030;-80
2021/06/30 08:26:41;;;;;;;0.20;0.20;;;;;;;;;;5035019;28;20043;-80
2021/06/30 08:29:08;;;;;;;0.30;0.28;;;;;;;;;;5034895;28;20029;-79
2021/06/30 08:31:34;;;;;;;0.25;0.25;;;;;;;;;;5004515;28;20038;-81
2021/06/30 08:34:00;;;;;;;0.93;0.35;;;;;;;;;;5005323;28;20042;-82
2021/06/30 08:36:26;;;;;;;0.80;0.20;;;;;;;;;;5021956;28;20018;-81
2021/06/30 08:38:52;;;;;;;3.83;0.95;;;;;;;;;;5005172;28;20355;-82
2021/06/30 08:41:18;;;;;;;0.30;0.20;;;;;;;;;;5005448;28;20072;-81
2021/06/30 08:43:45;;;;;;;0.47;0.20;;;;;;;;;;5024100;28;20025;-79
2021/06/30 08:46:11;;;;;;;0.20;0.20;;;;;;;;;;5020798;28;20018;-80
2021/06/30 08:48:41;;;;;;;0.30;0.30;;;;;;;;;;5020669;28;20080;-80
2021/06/30 08:51:08;;;;;;;0.30;0.30;;;;;;;;;;5004457;28;20033;-80
2021/06/30 08:53:34;;;;;;;1.65;0.47;;;;;;;;;;5022378;28;20037;-80
2021/06/30 08:56:00;;;;;;;1.55;0.40;;;;;;;;;;5032170;28;20053;-79
2021/06/30 08:58:26;;;;;;;0.30;0.30;;;;;;;;;;5044163;28;20033;-80
2021/06/30 09:00:53;;;;;;;0.20;0.20;;;;;;;;;;5044960;28;20051;-80
2021/06/30 09:03:20;;;;;;;0.68;0.22;;;;;;;;;;5043212;28;20121;-79
2021/06/30 09:08:22;;;;;;;0.17;0.17;;;;;;;;;;5023183;28;20100;-80
2021/06/30 09:10:48;;;;;;;0.82;0.30;;;;;;;;;;5021196;28;20030;-79
2021/06/30 09:13:24;;;;;;;1.20;0.30;;;;;;;;;;5021147;28;20053;-79
2021/06/30 09:15:57;;;;;;;0.30;0.30;;;;;;;;;;5019754;28;20018;-79
2021/06/30 09:18:27;;;;;;;1.15;0.35;;;;;;;;;;5016378;28;20359;-79
2021/06/30 09:21:12;;;;;;;0.30;0.30;;;;;;;;;;5017263;28;20071;-78
2021/06/30 09:23:55;;;;;;;0.85;0.20;;;;;;;;;;5017460;28;20109;-79
2021/06/30 09:26:21;;;;;;;0.45;0.25;;;;;;;;;;5017652;28;20017;-78
2021/06/30 09:28:47;;;;;;;0.35;0.32;;;;;;;;;;5015380;28;20040;-79
2021/06/30 09:31:15;;;;;;;0.73;0.70;;;;;;;;;;4999590;28;20032;-79
2021/06/30 09:33:51;;;;;;;0.25;0.20;;;;;;;;;;4989232;28;20046;-80
2021/06/30 09:36:17;;;;;;;0.30;0.30;;;;;;;;;;5026055;28;20028;-79
2021/06/30 09:38:44;;;;;;;0.77;0.45;;;;;;;;;;5013852;28;20395;-79
2021/06/30 09:41:30;;;;;;;0.85;0.40;;;;;;;;;;5017383;28;20092;-79
2021/06/30 09:44:06;;;;;;;0.82;0.47;;;;;;;;;;5017430;28;20049;-79
2021/06/30 09:46:32;;;;;;;0.82;0.40;;;;;;;;;;4998339;28;20021;-79
2021/06/30 09:49:00;;;;;;;0.28;0.28;;;;;;;;;;5015672;28;20081;-79
2021/06/30 09:51:26;;;;;;;0.68;0.30;;;;;;;;;;5015352;28;20033;-79
2021/06/30 09:53:53;;;;;;;0.30;0.30;;;;;;;;;;4997422;28;20045;-79
2021/06/30 09:56:35;;;;;;;0.50;0.30;;;;;;;;;;5022440;28;20026;-80
2021/06/30 09:59:10;;;;;;;1.10;0.40;;;;;;;;;;5014329;28;20088;-81
2021/06/30 10:01:39;;;;;;;0.75;0.13;;;;;;;;;;5010810;28;20029;-80
2021/06/30 10:04:05;;;;;;;1.27;0.40;;;;;;;;;;5000503;28;20022;-80
2021/06/30 10:06:32;;;;;;;0.77;0.43;;;;;;;;;;5015070;28;20026;-80
2021/06/30 10:09:03;;;;;;;0.35;0.30;;;;;;;;;;5018176;28;20066;-81
2021/06/30 10:11:30;;;;;;;0.65;0.50;;;;;;;;;;5017347;28;20026;-80
2021/06/30 10:13:56;;;;;;;0.22;0.22;;;;;;;;;;5002633;28;20060;-80
2021/06/30 10:16:23;;;;;;;2.13;0.50;;;;;;;;;;5019714;28;20072;-80
2021/06/30 10:18:50;;;;;;;0.40;0.40;;;;;;;;;;5018983;28;20026;-80
2021/06/30 10:21:20;;;;;;;0.30;0.30;;;;;;;;;;5021790;28;20082;-79
2021/06/30 10:23:50;;;;;;;0.30;0.30;;;;;;;;;;5021534;28;20033;-80
2021/06/30 10:26:18;;;;;;;0.22;0.22;;;;;;;;;;5013685;28;20022;-80
2021/06/30 10:28:46;;;;;;;1.17;0.50;;;;;;;;;;5005546;28;20498;-80
2021/06/30 10:31:12;;;;;;;0.30;0.30;;;;;;;;;;5020992;28;20044;-80
2021/06/30 10:33:40;;;;;;;0.40;0.30;;;;;;;;;;5020943;28;20070;-80
2021/06/30 10:36:07;;;;;;;0.50;0.30;;;;;;;;;;5020668;28;20045;-80
2021/06/30 10:38:53;;;;;;;0.43;0.40;;;;;;;;;;5003157;28;20064;-80
2021/06/30 10:41:38;;;;;;;0.32;0.32;;;;;;;;;;5004723;28;20048;-80
2021/06/30 10:44:18;;;;;;;0.25;0.20;;;;;;;;;;5003162;28;20351;-80
2021/06/30 10:46:44;;;;;;;0.57;0.20;;;;;;;;;;5021230;28;20026;-80
2021/06/30 10:49:30;;;;;;;0.40;0.40;;;;;;;;;;5022531;28;20026;-79
2021/06/30 10:51:57;;;;;;;0.57;0.30;;;;;;;;;;5023380;28;20518;-80
2021/06/30 10:54:32;;;;;;;1.25;0.30;;;;;;;;;;5026196;28;20099;-80
2021/06/30 10:57:17;;;;;;;0.43;0.40;;;;;;;;;;5025454;28;20030;-80
2021/06/30 11:00:02;;;;;;;0.93;0.40;;;;;;;;;;5024688;28;20506;-80
2021/06/30 11:02:31;;;;;;;1.27;0.40;;;;;;;;;;5024487;28;20068;-80
2021/06/30 11:04:58;;;;;;;1.75;0.40;;;;;;;;;;5029878;28;20014;-80
2021/06/30 11:07:31;;;;;;;1.98;0.73;;;;;;;;;;5031556;28;20030;-81
2021/06/30 11:09:57;;;;;;;0.30;0.30;;;;;;;;;;5029182;28;20026;-80
2021/06/30 11:12:43;;;;;;;0.82;0.43;;;;;;;;;;5032753;28;20014;-80
2021/06/30 11:15:10;;;;;;;0.52;0.52;;;;;;;;;;5032277;28;20053;-80
2021/06/30 11:17:37;;;;;;;1.50;0.50;;;;;;;;;;5026026;28;20034;-80
2021/06/30 11:20:04;;;;;;;0.35;0.30;;;;;;;;;;5026098;28;20026;-80
2021/06/30 11:22:31;;;;;;;1.15;0.57;;;;;;;;;;5026904;28;20137;-80
2021/06/30 11:24:58;;;;;;;0.60;0.60;;;;;;;;;;5035151;28;20026;-80
2021/06/30 11:27:32;;;;;;;1.65;0.52;;;;;;;;;;5025047;28;20155;-80
2021/06/30 11:30:01;;;;;;;0.40;0.40;;;;;;;;;;5030977;28;20030;-79
2021/06/30 11:32:37;;;;;;;0.63;0.40;;;;;;;;;;5033871;28;20029;-80
2021/06/30 11:35:09;;;;;;;0.73;0.50;;;;;;;;;;5034251;28;20032;-80
2021/06/30 11:37:36;;;;;;;0.20;0.20;;;;;;;;;;5032277;28;20159;-79
2021/06/30 11:40:08;;;;;;;0.40;0.40;;;;;;;;;;5025006;28;20034;-79
2021/06/30 11:42:35;;;;;;;1.85;1.00;;;;;;;;;;5023023;28;20534;-80
2021/06/30 11:45:01;;;;;;;0.77;0.77;;;;;;;;;;5006165;28;20034;-79
2021/06/30 11:47:27;;;;;;;0.30;0.30;;;;;;;;;;5005163;28;20384;-80
2021/06/30 11:50:06;;;;;;;0.20;0.20;;;;;;;;;;5020927;28;20033;-82
2021/06/30 11:52:32;;;;;;;0.70;0.40;;;;;;;;;;5021164;28;20069;-80
2021/06/30 11:54:59;;;;;;;0.52;0.50;;;;;;;;;;5021265;28;20454;-80
2021/06/30 11:57:25;;;;;;;1.05;0.50;;;;;;;;;;5030265;28;20026;-80
2021/06/30 12:00:08;;;;;;;0.68;0.60;;;;;;;;;;5021556;28;20042;-81
2021/06/30 12:02:48;;;;;;;0.30;0.30;;;;;;;;;;5022543;28;20578;-80
2021/06/30 12:05:14;;;;;;;0.30;0.30;;;;;;;;;;5021961;28;20105;-80
2021/06/30 12:07:41;;;;;;;0.28;0.20;;;;;;;;;;5007419;28;20052;-80
2021/06/30 12:10:07;;;;;;;4.10;0.73;;;;;;;;;;5000570;28;20460;-80
2021/06/30 12:12:33;;;;;;;1.08;0.50;;;;;;;;;;5000414;28;20034;-81
2021/06/30 12:15:02;;;;;;;1.65;0.40;;;;;;;;;;4982874;28;20046;-79
2021/06/30 12:17:29;;;;;;;0.60;0.20;;;;;;;;;;4999551;28;20207;-80
2021/06/30 12:19:55;;;;;;;0.80;0.32;;;;;;;;;;4999546;28;20030;-80
2021/06/30 12:22:24;;;;;;;0.40;0.30;;;;;;;;;;5000068;28;20022;-80
2021/06/30 12:24:51;;;;;;;0.30;0.22;;;;;;;;;;4996284;28;20545;-80
2021/06/30 12:27:17;;;;;;;0.45;0.30;;;;;;;;;;5002754;28;20041;-80
2021/06/30 12:29:44;;;;;;;0.28;0.28;;;;;;;;;;5014130;28;20152;-80
2021/06/30 12:32:14;;;;;;;0.20;0.20;;;;;;;;;;5025199;28;20030;-80
2021/06/30 12:34:41;;;;;;;0.35;0.35;;;;;;;;;;5020207;28;20029;-80
2021/06/30 12:37:07;;;;;;;0.35;0.35;;;;;;;;;;5021663;28;20034;-80
2021/06/30 12:39:35;;;;;;;0.30;0.30;;;;;;;;;;5030411;28;20041;-79
2021/06/30 12:42:05;;;;;;;6.43;0.47;;;;;;;;;;5004047;28;20105;-81
2021/06/30 12:44:51;;;;;;;1.50;0.30;;;;;;;;;;5002708;28;20022;-79
2021/06/30 12:47:17;;;;;;;0.30;0.30;;;;;;;;;;5022229;28;20037;-79
2021/06/30 12:49:55;;;;;;;0.70;0.40;;;;;;;;;;5020182;28;20025;-79
2021/06/30 12:52:22;;;;;;;1.05;0.55;;;;;;;;;;5021418;28;20050;-80
2021/06/30 12:55:09;;;;;;;0.70;0.35;;;;;;;;;;5025451;28;20032;-81
2021/06/30 12:57:53;;;;;;;0.70;0.13;;;;;;;;;;4999807;28;20058;-79
2021/06/30 13:00:21;;;;;;;0.45;0.30;;;;;;;;;;4996749;28;20034;-81
2021/06/30 13:03:07;;;;;;;0.40;0.40;;;;;;;;;;4999179;28;20105;-81
2021/06/30 13:05:33;;;;;;;0.63;0.40;;;;;;;;;;5000029;28;20030;-81
2021/06/30 13:07:59;;;;;;;0.55;0.40;;;;;;;;;;4983346;28;20022;-81
2021/06/30 13:10:25;;;;;;;0.88;0.45;;;;;;;;;;5000851;28;20026;-80
2021/06/30 13:13:04;;;;;;;1.00;0.43;;;;;;;;;;5001704;28;20503;-80
2021/06/30 13:15:30;;;;;;;0.40;0.40;;;;;;;;;;5003217;28;20030;-81
2021/06/30 13:18:13;;;;;;;0.75;0.60;;;;;;;;;;5003406;28;20046;-81
2021/06/30 13:20:40;;;;;;;0.65;0.65;;;;;;;;;;4987329;28;20034;-80
2021/06/30 13:23:06;;;;;;;0.50;0.50;;;;;;;;;;5002554;28;20022;-80
2021/06/30 13:25:41;;;;;;;1.95;0.50;;;;;;;;;;5031032;28;20022;-80
2021/06/30 13:28:28;;;;;;;0.50;0.50;;;;;;;;;;5020830;28;20105;-80
2021/06/30 13:36:30;;;;;;;1.45;0.60;;;;;;;;;;5020890;28;20715;-79
2021/06/30 13:38:56;;;;;;;0.82;0.65;;;;;;;;;;5003946;28;20470;-80
2021/06/30 13:41:22;;;;;;;0.73;0.47;;;;;;;;;;5019139;28;20056;-80
2021/06/30 13:43:49;;;;;;;2.33;0.50;;;;;;;;;;5017550;28;20045;-81
2021/06/30 13:46:20;;;;;;;0.73;0.60;;;;;;;;;;5019837;28;20022;-80
2021/06/30 13:48:46;;;;;;;0.70;0.60;;;;;;;;;;5017845;28;20022;-81
2021/06/30 13:51:13;;;;;;;1.25;0.70;;;;;;;;;;5016901;28;20111;-80
2021/06/30 13:53:44;;;;;;;0.47;0.47;;;;;;;;;;5015284;28;20030;-81
2021/06/30 13:56:11;;;;;;;0.65;0.47;;;;;;;;;;5034182;28;20029;-79
2021/06/30 13:58:37;;;;;;;0.68;0.43;;;;;;;;;;5020893;28;20017;-80
2021/06/30 14:01:04;;;;;;;0.55;0.50;;;;;;;;;;5041276;28;20037;-80
2021/06/30 14:03:30;;;;;;;0.80;0.80;;;;;;;;;;5020867;28;20030;-80
2021/06/30 14:05:56;;;;;;;2.95;0.98;;;;;;;;;;4999952;28;20037;-79
2021/06/30 14:08:23;;;;;;;1.05;0.40;;;;;;;;;;5029195;28;20037;-80
2021/06/30 14:10:51;;;;;;;1.35;0.40;;;;;;;;;;5019411;28;20030;-80
2021/06/30 14:13:20;;;;;;;0.88;0.43;;;;;;;;;;5016472;28;20045;-79
2021/06/30 14:15:46;;;;;;;0.60;0.30;;;;;;;;;;5011052;28;20029;-80
2021/06/30 14:18:12;;;;;;;0.60;0.40;;;;;;;;;;5015126;28;20038;-79
2021/06/30 14:20:41;;;;;;;2.65;0.40;;;;;;;;;;5014111;28;20061;-80
2021/06/30 14:23:08;;;;;;;0.90;0.38;;;;;;;;;;5017800;28;20344;-79
2021/06/30 14:25:34;;;;;;;0.50;0.50;;;;;;;;;;5017002;28;20025;-80
2021/06/30 14:28:00;;;;;;;0.40;0.40;;;;;;;;;;5023506;28;20029;-81
2021/06/30 14:30:26;;;;;;;1.65;0.20;;;;;;;;;;5010248;28;20089;-80
2021/06/30 14:32:53;;;;;;;0.20;0.20;;;;;;;;;;5032643;28;20056;-80
2021/06/30 14:35:19;;;;;;;0.63;0.52;;;;;;;;;;5043543;28;20075;-82
2021/06/30 14:37:45;;;;;;;0.75;0.30;;;;;;;;;;5041811;28;20053;-81
2021/06/30 14:40:12;;;;;;;1.05;0.30;;;;;;;;;;5042205;28;20029;-80
2021/06/30 14:42:39;;;;;;;0.82;0.55;;;;;;;;;;5034301;28;20041;-80
2021/06/30 14:45:06;;;;;;;0.50;0.47;;;;;;;;;;5008442;28;20022;-80
2021/06/30 14:47:32;;;;;;;0.82;0.55;;;;;;;;;;5012140;28;20026;-80
2021/06/30 14:49:59;;;;;;;0.20;0.20;;;;;;;;;;5027504;28;20057;-80
2021/06/30 14:52:25;;;;;;;0.40;0.30;;;;;;;;;;5021582;28;20026;-81
2021/06/30 14:54:51;;;;;;;0.60;0.40;;;;;;;;;;5028277;28;20029;-83